createdAt,value
2023-04-14T00:01:57.331Z,3.50
2023-04-14T00:04:24.832Z,3.45
2023-04-14T00:06:52.729Z,4.50
2023-04-14T00:09:19.987Z,3.60
2023-04-14T00:11:47.285Z,3.10
2023-04-14T00:14:14.490Z,3.38
2023-04-14T00:16:43.102Z,3.83
2023-04-14T00:19:10.593Z,2.20
2023-04-14T00:21:37.861Z,3.00
2023-04-14T00:24:05.166Z,3.88
2023-04-14T00:26:36.284Z,2.90
2023-04-14T00:29:03.634Z,3.50
2023-04-14T00:31:31.036Z,4.13
2023-04-14T00:34:01.194Z,4.07
2023-04-14T00:36:28.680Z,3.05
2023-04-14T00:38:56.053Z,4.68
2023-04-14T00:41:24.815Z,3.05
2023-04-14T00:43:55.469Z,3.53
2023-04-14T00:46:23.114Z,3.38
2023-04-14T00:48:52.546Z,3.63
2023-04-14T00:51:19.778Z,3.80
2023-04-14T00:53:47.036Z,7.07
2023-04-14T00:56:14.449Z,3.88
2023-04-14T00:58:42.169Z,3.88
2023-04-14T01:01:09.406Z,4.10
2023-04-14T01:03:37.227Z,4.47
2023-04-14T01:06:05.161Z,3.63
2023-04-14T01:08:35.612Z,3.53
2023-04-14T01:11:11.117Z,3.95
2023-04-14T01:13:57.390Z,4.32
2023-04-14T01:16:30.705Z,4.55
2023-04-14T01:19:04.130Z,3.83
2023-04-14T01:21:33.162Z,4.28
2023-04-14T01:24:00.404Z,5.93
2023-04-14T01:26:30.587Z,5.15
2023-04-14T01:29:18.174Z,4.25
2023-04-14T01:31:47.630Z,3.67
2023-04-14T01:34:18.025Z,4.18
2023-04-14T01:36:46.824Z,4.80
2023-04-14T01:39:19.027Z,4.03
2023-04-14T01:41:48.951Z,5.03
2023-04-14T01:44:19.363Z,3.80
2023-04-14T01:46:47.442Z,4.53
2023-04-14T01:49:15.952Z,4.15
2023-04-14T01:51:44.461Z,3.78
2023-04-14T01:54:12.532Z,3.97
2023-04-14T01:56:41.076Z,3.75
2023-04-14T01:59:10.867Z,4.53
2023-04-14T02:01:39.357Z,4.22
2023-04-14T02:04:08.348Z,3.83
2023-04-14T02:06:37.040Z,3.92
2023-04-14T02:09:05.748Z,4.95
2023-04-14T02:11:34.216Z,4.57
2023-04-14T02:14:01.816Z,3.77
2023-04-14T02:16:30.020Z,5.18
2023-04-14T02:18:57.815Z,4.78
2023-04-14T02:23:55.143Z,4.82
2023-04-14T02:26:23.186Z,4.45
2023-04-14T02:28:51.901Z,5.00
2023-04-14T02:31:23.688Z,4.13
2023-04-14T02:33:55.434Z,4.30
2023-04-14T02:36:37.075Z,5.22
2023-04-14T02:39:10.991Z,4.38
2023-04-14T02:41:41.028Z,3.70
2023-04-14T02:44:19.770Z,4.97
2023-04-14T02:46:52.234Z,4.43
2023-04-14T02:49:20.571Z,4.07
2023-04-14T02:51:48.660Z,3.97
2023-04-14T02:54:17.377Z,4.32
2023-04-14T02:56:47.453Z,4.03
2023-04-14T02:59:14.992Z,6.35
2023-04-14T03:01:55.705Z,5.00
2023-04-14T03:04:24.339Z,5.07
2023-04-14T03:06:51.929Z,4.70
2023-04-14T03:09:19.215Z,7.18
2023-04-14T03:11:47.233Z,6.88
2023-04-14T03:14:16.364Z,5.55
2023-04-14T03:16:43.731Z,4.95
2023-04-14T03:19:12.935Z,5.40
2023-04-14T03:21:44.138Z,6.47
2023-04-14T03:24:14.334Z,5.53
2023-04-14T03:26:42.432Z,5.75
2023-04-14T03:29:10.310Z,5.68
2023-04-14T03:31:38.749Z,5.55
2023-04-14T03:34:07.795Z,6.07
2023-04-14T03:36:41.369Z,5.97
2023-04-14T03:39:14.486Z,6.95
2023-04-14T03:41:47.750Z,6.97
2023-04-14T03:44:17.497Z,7.15
2023-04-14T03:46:49.455Z,6.15
2023-04-14T03:49:18.076Z,6.47
2023-04-14T03:51:48.172Z,8.50
2023-04-14T03:54:15.875Z,7.03
2023-04-14T03:56:45.334Z,7.65
2023-04-14T03:59:15.488Z,7.53
2023-04-14T04:01:44.399Z,7.05
2023-04-14T04:04:12.668Z,7.10
2023-04-14T04:06:41.935Z,8.05
2023-04-14T04:09:10.349Z,7.85
2023-04-14T04:11:38.778Z,8.70
2023-04-14T04:14:07.216Z,10.13
2023-04-14T04:16:37.959Z,10.00
2023-04-14T04:19:08.503Z,8.75
2023-04-14T04:21:37.156Z,9.43
2023-04-14T04:24:05.387Z,8.07
2023-04-14T04:26:36.368Z,9.88
2023-04-14T04:29:04.604Z,9.55
2023-04-14T04:31:35.379Z,10.43
2023-04-14T04:34:06.008Z,8.90
2023-04-14T04:36:34.573Z,9.80
2023-04-14T04:39:02.078Z,9.80
2023-04-14T04:41:33.362Z,8.98
2023-04-14T04:44:02.819Z,10.15
2023-04-14T04:46:48.858Z,10.32
2023-04-14T04:49:17.216Z,9.48
2023-04-14T04:51:45.749Z,10.10
2023-04-14T04:54:15.675Z,10.15
2023-04-14T04:56:42.924Z,10.13
2023-04-14T04:59:10.789Z,9.90
2023-04-14T05:01:38.251Z,10.85
2023-04-14T05:04:05.573Z,9.52
2023-04-14T05:06:35.354Z,10.95
2023-04-14T05:09:02.701Z,9.60
2023-04-14T05:11:30.081Z,10.85
2023-04-14T05:13:57.314Z,11.02
2023-04-14T05:16:25.613Z,9.50
2023-04-14T05:18:53.132Z,9.93
2023-04-14T05:21:20.481Z,8.27
2023-04-14T05:23:47.943Z,9.45
2023-04-14T05:26:35.548Z,10.82
2023-04-14T05:29:04.033Z,9.30
2023-04-14T05:31:31.962Z,10.20
2023-04-14T05:33:59.425Z,9.68
2023-04-14T05:36:27.511Z,9.38
2023-04-14T05:38:54.780Z,10.38
2023-04-14T05:41:22.035Z,11.48
2023-04-14T05:43:49.322Z,9.80
2023-04-14T05:46:16.745Z,9.07
2023-04-14T05:48:44.044Z,9.02
2023-04-14T05:51:11.307Z,9.90
2023-04-14T05:53:38.557Z,12.32
2023-04-14T05:56:05.982Z,9.52
2023-04-14T05:58:33.159Z,9.63
2023-04-14T06:01:00.709Z,10.50
2023-04-14T06:03:28.453Z,9.25
2023-04-14T06:05:55.893Z,8.75
2023-04-14T06:08:23.117Z,10.57
2023-04-14T06:10:50.570Z,10.05
2023-04-14T06:13:18.638Z,8.88
2023-04-14T06:15:45.906Z,7.90
2023-04-14T06:18:14.725Z,8.57
2023-04-14T06:20:41.902Z,8.02
2023-04-14T06:23:09.170Z,7.40
2023-04-14T06:25:36.354Z,7.72
2023-04-14T06:28:03.670Z,6.72
2023-04-14T06:30:34.253Z,7.93
2023-04-14T06:33:04.797Z,7.90
2023-04-14T06:35:33.799Z,7.22
2023-04-14T06:40:28.641Z,8.77
2023-04-14T06:42:56.107Z,6.80
2023-04-14T06:45:23.400Z,6.25
2023-04-14T06:47:50.833Z,6.68
2023-04-14T06:50:18.265Z,5.65
2023-04-14T06:52:45.592Z,8.23
2023-04-14T06:55:12.828Z,6.68
2023-04-14T06:57:40.497Z,5.95
2023-04-14T07:00:09.385Z,6.82
2023-04-14T07:02:37.071Z,6.22
2023-04-14T07:05:05.657Z,7.05
2023-04-14T07:07:36.557Z,4.65
2023-04-14T07:10:04.279Z,6.35
2023-04-14T07:12:31.595Z,6.97
2023-04-14T07:14:58.846Z,6.32
2023-04-14T07:17:26.224Z,5.88
2023-04-14T07:19:53.559Z,6.38
2023-04-14T07:22:20.815Z,6.80
2023-04-14T07:24:48.137Z,6.35
2023-04-14T07:27:15.871Z,5.72
2023-04-14T07:29:43.347Z,5.15
2023-04-14T07:32:13.196Z,5.13
2023-04-14T07:34:44.163Z,5.90
2023-04-14T07:37:11.768Z,4.88
2023-04-14T07:39:39.765Z,5.40
2023-04-14T07:42:07.112Z,5.22
2023-04-14T07:44:34.601Z,5.95
2023-04-14T07:47:01.896Z,5.15
2023-04-14T07:49:29.175Z,4.45
2023-04-14T07:51:56.874Z,4.55
2023-04-14T07:54:24.336Z,4.40
2023-04-14T07:56:51.615Z,4.78
2023-04-14T07:59:18.929Z,4.35
2023-04-14T08:01:46.567Z,4.15
2023-04-14T08:04:14.179Z,3.75
2023-04-14T08:06:41.608Z,4.28
2023-04-14T08:09:08.946Z,4.43
2023-04-14T08:11:36.241Z,4.07
2023-04-14T08:14:04.637Z,3.40
2023-04-14T08:16:36.649Z,4.32
2023-04-14T08:19:05.268Z,3.65
2023-04-14T08:21:33.083Z,3.92
2023-04-14T08:24:00.385Z,3.80
2023-04-14T08:26:27.637Z,3.00
2023-04-14T08:28:55.684Z,3.28
2023-04-14T08:31:24.480Z,2.85
2023-04-14T08:33:52.995Z,1.90
2023-04-14T08:36:20.687Z,2.47
2023-04-14T08:38:47.935Z,2.30
2023-04-14T08:41:15.882Z,2.33
2023-04-14T08:43:43.445Z,2.92
2023-04-14T08:46:11.761Z,2.13
2023-04-14T08:48:39.621Z,2.40
2023-04-14T08:51:25.504Z,2.88
2023-04-14T08:53:54.132Z,2.42
2023-04-14T08:56:22.107Z,2.10
2023-04-14T08:58:49.456Z,1.73
2023-04-14T09:01:17.106Z,1.70
2023-04-14T09:03:44.622Z,2.35
2023-04-14T09:06:13.206Z,2.67
2023-04-14T09:08:40.701Z,1.83
2023-04-14T09:11:08.047Z,1.90
2023-04-14T09:13:35.486Z,1.92
2023-04-14T09:16:03.533Z,1.63
2023-04-14T09:18:34.466Z,1.55
2023-04-14T09:21:30.247Z,1.95
2023-04-14T09:23:49.382Z,1.40
2023-04-14T09:26:16.748Z,1.50
2023-04-14T09:28:44.055Z,1.67
2023-04-14T09:31:11.722Z,1.48
2023-04-14T09:33:39.832Z,1.83
2023-04-14T09:36:07.170Z,1.40
2023-04-14T09:38:38.852Z,1.85
2023-04-14T09:41:06.678Z,2.58
2023-04-14T09:43:34.026Z,1.70
2023-04-14T09:46:11.277Z,2.10
2023-04-14T09:48:57.108Z,1.30
2023-04-14T09:51:33.053Z,2.15
2023-04-14T09:54:05.095Z,2.13
2023-04-14T09:56:32.854Z,1.40
2023-04-14T09:59:02.104Z,2.85
2023-04-14T10:01:34.604Z,1.85
2023-04-14T10:04:02.815Z,1.80
2023-04-14T10:06:38.704Z,1.90
2023-04-14T10:09:06.125Z,1.98
2023-04-14T10:11:33.482Z,3.45
2023-04-14T10:14:04.437Z,1.73
2023-04-14T10:16:32.052Z,1.77
2023-04-14T10:18:59.851Z,1.83
2023-04-14T10:21:29.027Z,2.85
2023-04-14T10:23:57.743Z,2.67
2023-04-14T10:26:25.836Z,1.77
2023-04-14T10:28:54.442Z,1.90
2023-04-14T10:31:24.655Z,1.80
2023-04-14T10:33:52.519Z,2.00
2023-04-14T10:36:27.347Z,2.05
2023-04-14T10:39:02.427Z,3.05
2023-04-14T10:41:46.975Z,2.08
2023-04-14T10:44:23.582Z,2.50
2023-04-14T10:46:52.078Z,3.47
2023-04-14T10:49:19.525Z,2.03
2023-04-14T10:51:49.933Z,2.05
2023-04-14T10:54:19.221Z,2.03
2023-04-14T10:57:05.319Z,1.85
2023-04-14T10:59:32.750Z,2.33
2023-04-14T11:02:00.444Z,2.30
2023-04-14T11:04:27.972Z,2.38
2023-04-14T11:06:57.185Z,1.88
2023-04-14T11:11:52.261Z,1.83
2023-04-14T11:14:25.980Z,2.17
2023-04-14T11:17:02.854Z,2.28
2023-04-14T11:19:32.042Z,2.63
2023-04-14T11:21:59.367Z,2.22
2023-04-14T11:24:26.871Z,1.70
2023-04-14T11:26:55.188Z,1.80
2023-04-14T11:29:22.996Z,2.07
2023-04-14T11:32:08.737Z,2.55
2023-04-14T11:34:36.443Z,1.77
2023-04-14T11:37:04.097Z,2.13
2023-04-14T11:39:31.571Z,1.38
2023-04-14T11:42:02.745Z,1.80
2023-04-14T11:44:30.350Z,1.92
2023-04-14T11:46:57.609Z,1.80
2023-04-14T11:49:37.727Z,1.48
2023-04-14T11:52:05.734Z,2.22
2023-04-14T11:54:39.663Z,2.05
2023-04-14T11:57:11.221Z,1.33
2023-04-14T11:59:42.385Z,2.05
2023-04-14T12:02:15.740Z,2.20
2023-04-14T12:04:43.473Z,1.25
2023-04-14T12:07:14.673Z,1.30
2023-04-14T12:09:46.241Z,1.88
2023-04-14T12:12:17.040Z,1.58
2023-04-14T12:14:45.441Z,1.65
2023-04-14T12:17:13.848Z,1.45
2023-04-14T12:19:41.141Z,2.05
2023-04-14T12:22:09.673Z,1.50
2023-04-14T12:24:37.785Z,1.40
2023-04-14T12:27:06.315Z,1.90
2023-04-14T12:29:40.758Z,2.10
2023-04-14T12:32:11.685Z,1.90
2023-04-14T12:34:40.427Z,1.73
2023-04-14T12:37:09.791Z,1.70
2023-04-14T12:39:54.235Z,1.58
2023-04-14T12:42:21.490Z,1.70
2023-04-14T12:44:59.004Z,1.80
2023-04-14T12:47:29.430Z,1.98
2023-04-14T12:49:57.247Z,1.83
2023-04-14T12:52:40.752Z,2.40
2023-04-14T12:55:20.017Z,1.40
2023-04-14T12:57:47.584Z,2.03
2023-04-14T13:00:15.107Z,2.10
2023-04-14T13:02:44.114Z,1.85
2023-04-14T13:05:12.672Z,1.60
2023-04-14T13:07:39.984Z,2.05
2023-04-14T13:10:07.475Z,2.25
2023-04-14T13:12:34.905Z,1.60
2023-04-14T13:15:02.205Z,2.25
2023-04-14T13:17:29.712Z,1.65
2023-04-14T13:19:57.213Z,1.67
2023-04-14T13:22:24.748Z,1.42
2023-04-14T13:24:52.061Z,1.55
2023-04-14T13:27:19.933Z,1.63
2023-04-14T13:29:47.310Z,2.03
2023-04-14T13:32:14.642Z,2.28
2023-04-14T13:34:43.329Z,2.28
2023-04-14T13:37:10.622Z,1.80
2023-04-14T13:39:37.886Z,2.05
2023-04-14T13:42:05.969Z,2.95
2023-04-14T13:44:34.343Z,1.90
2023-04-14T13:47:01.617Z,1.70
2023-04-14T13:49:30.034Z,2.40
2023-04-14T13:51:57.379Z,1.97
2023-04-14T13:54:24.648Z,1.48
2023-04-14T13:56:51.863Z,1.80
2023-04-14T13:59:19.190Z,2.05
2023-04-14T14:01:46.587Z,1.58
2023-04-14T14:04:14.017Z,1.60
2023-04-14T14:06:41.544Z,2.35
2023-04-14T14:09:09.014Z,2.17
2023-04-14T14:11:36.563Z,1.80
2023-04-14T14:14:04.149Z,1.60
2023-04-14T14:16:37.172Z,1.80
2023-04-14T14:19:08.039Z,1.77
2023-04-14T14:21:35.730Z,1.85
2023-04-14T14:24:03.244Z,1.75
2023-04-14T14:26:30.714Z,1.70
2023-04-14T14:28:58.088Z,2.20
2023-04-14T14:31:25.528Z,1.50
2023-04-14T14:33:52.864Z,1.60
2023-04-14T14:36:20.357Z,1.83
2023-04-14T14:38:47.611Z,1.65
2023-04-14T14:41:14.943Z,1.92
2023-04-14T14:43:42.396Z,1.55
2023-04-14T14:46:09.694Z,1.55
2023-04-14T14:48:37.021Z,1.75
2023-04-14T14:51:04.656Z,2.13
2023-04-14T14:53:32.355Z,1.38
2023-04-14T14:55:59.580Z,1.88
2023-04-14T14:58:26.939Z,1.52
2023-04-14T15:00:54.447Z,2.05
2023-04-14T15:03:21.876Z,2.38
2023-04-14T15:05:49.756Z,1.55
2023-04-14T15:08:17.071Z,2.13
2023-04-14T15:10:44.320Z,1.80
2023-04-14T15:13:12.747Z,1.38
2023-04-14T15:15:39.975Z,1.70
2023-04-14T15:18:07.884Z,1.63
2023-04-14T15:20:35.143Z,1.60
2023-04-14T15:23:02.399Z,2.20
2023-04-14T15:25:29.696Z,1.52
2023-04-14T15:27:56.949Z,1.85
2023-04-14T15:30:24.440Z,1.75
2023-04-14T15:32:51.957Z,1.92
2023-04-14T15:35:19.242Z,2.10
2023-04-14T15:37:47.197Z,1.85
2023-04-14T15:40:14.543Z,1.60
2023-04-14T15:42:41.946Z,1.58
2023-04-14T15:45:09.697Z,1.58
2023-04-14T15:47:37.003Z,1.80
2023-04-14T15:50:09.311Z,1.40
2023-04-14T15:52:37.818Z,1.40
2023-04-14T15:55:05.274Z,1.40
2023-04-14T15:57:32.526Z,1.23
2023-04-14T15:59:59.813Z,1.35
2023-04-14T16:02:30.598Z,1.48
2023-04-14T16:04:58.203Z,1.63
2023-04-14T16:07:25.587Z,1.60
2023-04-14T16:09:52.829Z,2.40
2023-04-14T16:12:20.386Z,1.42
2023-04-14T16:14:47.704Z,1.35
2023-04-14T16:17:14.981Z,1.77
2023-04-14T16:19:42.245Z,1.67
2023-04-14T16:22:09.563Z,1.65
2023-04-14T16:24:37.009Z,2.05
2023-04-14T16:27:04.336Z,1.50
2023-04-14T16:29:31.630Z,2.08
2023-04-14T16:31:58.873Z,2.15
2023-04-14T16:34:26.312Z,1.42
2023-04-14T16:36:54.092Z,1.33
2023-04-14T16:39:22.290Z,1.60
2023-04-14T16:41:49.584Z,1.60
2023-04-14T16:44:16.985Z,1.63
2023-04-14T16:46:44.318Z,1.67
2023-04-14T16:49:11.643Z,1.48
2023-04-14T16:51:38.857Z,2.72
2023-04-14T16:54:06.291Z,1.77
2023-04-14T16:56:36.223Z,2.10
2023-04-14T16:59:04.779Z,1.33
2023-04-14T17:01:32.738Z,1.60
2023-04-14T17:04:00.627Z,1.30
2023-04-14T17:06:28.203Z,2.15
2023-04-14T17:08:55.768Z,1.40
2023-04-14T17:11:23.025Z,0.88
2023-04-14T17:13:50.318Z,1.73
2023-04-14T17:16:17.552Z,1.23
2023-04-14T17:18:44.906Z,1.30
2023-04-14T17:21:12.368Z,1.30
2023-04-14T17:23:39.677Z,1.67
2023-04-14T17:26:07.050Z,1.60
2023-04-14T17:28:35.729Z,1.20
2023-04-14T17:31:04.468Z,1.42
2023-04-14T17:33:32.319Z,1.40
2023-04-14T17:35:59.641Z,1.50
2023-04-14T17:38:27.329Z,1.23
2023-04-14T17:40:54.694Z,1.55
2023-04-14T17:43:22.620Z,1.58
2023-04-14T17:45:50.617Z,1.38
2023-04-14T17:48:18.196Z,1.30
2023-04-14T17:50:46.449Z,1.40
2023-04-14T17:53:15.660Z,1.40
2023-04-14T17:58:10.814Z,1.55
2023-04-14T18:00:38.226Z,1.50
2023-04-14T18:03:05.835Z,1.10
2023-04-14T18:05:33.178Z,1.45
2023-04-14T18:08:01.233Z,1.35
2023-04-14T18:10:28.770Z,2.20
2023-04-14T18:12:56.551Z,1.90
2023-04-14T18:15:23.866Z,1.63
2023-04-14T18:17:51.294Z,5.78
2023-04-14T18:20:25.081Z,3.65
2023-04-14T18:22:54.251Z,3.00
2023-04-14T18:30:19.492Z,3.50
2023-04-14T18:32:47.134Z,3.67
2023-04-14T18:35:15.720Z,3.47
2023-04-14T18:37:43.253Z,2.20
2023-04-14T18:40:10.651Z,1.48
2023-04-14T18:42:38.871Z,1.85
2023-04-14T18:45:06.402Z,1.67
2023-04-14T18:47:34.171Z,2.10
2023-04-14T18:50:01.544Z,2.13
2023-04-14T18:52:28.744Z,1.70
2023-04-14T18:54:56.243Z,1.88
2023-04-14T18:57:24.345Z,1.40
2023-04-14T18:59:51.585Z,1.17
2023-04-14T19:02:19.016Z,1.27
2023-04-14T19:04:46.504Z,1.75
2023-04-14T19:07:13.814Z,1.05
2023-04-14T19:09:41.102Z,1.48
2023-04-14T19:12:18.448Z,1.02
2023-04-14T19:14:53.133Z,1.55
2023-04-14T19:17:20.598Z,1.35
2023-04-14T19:19:47.821Z,1.20
2023-04-14T19:22:16.113Z,1.10
2023-04-14T19:24:43.384Z,1.13
2023-04-14T19:27:10.677Z,1.20
2023-04-14T19:29:37.902Z,1.10
2023-04-14T19:32:05.345Z,1.15
2023-04-14T19:34:32.708Z,1.60
2023-04-14T19:37:00.011Z,0.98
2023-04-14T19:39:27.280Z,1.30
2023-04-14T19:41:54.462Z,2.05
2023-04-14T19:44:21.727Z,2.42
2023-04-14T19:46:48.992Z,2.83
2023-04-14T19:49:16.394Z,2.67
2023-04-14T19:51:43.713Z,1.30
2023-04-14T19:54:11.166Z,1.63
2023-04-14T19:56:38.948Z,1.50
2023-04-14T19:59:06.218Z,2.15
2023-04-14T20:01:33.661Z,2.28
2023-04-14T20:04:07.420Z,2.35
2023-04-14T20:09:07.737Z,2.22
2023-04-14T20:11:35.384Z,2.20
2023-04-14T20:14:03.746Z,2.13
2023-04-14T20:16:31.176Z,2.47
2023-04-14T20:18:58.596Z,2.42
2023-04-14T20:21:26.005Z,1.90
2023-04-14T20:23:53.265Z,2.50
2023-04-14T20:26:20.593Z,2.70
2023-04-14T20:28:47.833Z,2.38
2023-04-14T20:31:15.811Z,1.85
2023-04-14T20:33:44.224Z,2.65
2023-04-14T20:36:11.425Z,3.07
2023-04-14T20:38:38.630Z,2.75
2023-04-14T20:41:05.985Z,2.50
2023-04-14T20:43:36.370Z,2.40
2023-04-14T20:46:04.274Z,3.70
2023-04-14T20:48:32.302Z,3.45
2023-04-14T20:51:00.573Z,3.17
2023-04-14T20:53:30.122Z,2.78
2023-04-14T20:55:58.168Z,3.17
2023-04-14T20:58:25.579Z,2.63
2023-04-14T21:00:53.180Z,2.72
2023-04-14T21:03:20.490Z,2.85
2023-04-14T21:05:48.077Z,2.95
2023-04-14T21:08:15.432Z,3.75
2023-04-14T21:11:14.685Z,3.40
2023-04-14T21:15:40.215Z,3.13
2023-04-14T21:16:17.685Z,3.67
2023-04-14T21:18:45.098Z,3.08
2023-04-14T21:21:13.510Z,3.63
2023-04-14T21:23:41.396Z,3.50
2023-04-14T21:26:08.636Z,3.65
2023-04-14T21:28:36.953Z,4.75
2023-04-14T21:31:04.665Z,3.70
2023-04-14T21:33:32.596Z,3.88
2023-04-14T21:36:02.935Z,3.78
2023-04-14T21:38:30.155Z,4.13
2023-04-14T21:40:57.458Z,3.88
2023-04-14T21:43:24.698Z,4.32
2023-04-14T21:45:52.097Z,3.60
2023-04-14T21:48:20.708Z,3.78
2023-04-14T21:50:48.449Z,4.15
2023-04-14T21:53:16.081Z,4.55
2023-04-14T21:55:43.428Z,4.70
2023-04-14T21:58:11.050Z,4.50
2023-04-14T22:00:38.427Z,5.63
2023-04-14T22:03:05.756Z,4.97
2023-04-14T22:05:33.318Z,4.80
2023-04-14T22:08:00.596Z,5.60
2023-04-14T22:10:32.263Z,5.22
2023-04-14T22:13:00.517Z,5.85
2023-04-14T22:15:28.052Z,5.00
2023-04-14T22:17:55.869Z,5.07
2023-04-14T22:20:25.125Z,5.53
2023-04-14T22:22:52.369Z,5.68
2023-04-14T22:25:19.650Z,4.90
2023-04-14T22:27:46.888Z,5.72
2023-04-14T22:30:14.414Z,5.45
2023-04-14T22:32:41.794Z,6.10
2023-04-14T22:35:09.264Z,6.13
2023-04-14T22:37:36.655Z,5.47
2023-04-14T22:40:04.441Z,5.55
2023-04-14T22:42:31.686Z,6.32
2023-04-14T22:44:59.040Z,6.88
2023-04-14T22:47:26.450Z,6.07
2023-04-14T22:49:53.672Z,6.25
2023-04-14T22:52:20.914Z,7.15
2023-04-14T22:54:48.797Z,6.07
2023-04-14T22:57:16.080Z,7.07
2023-04-14T22:59:43.394Z,7.32
2023-04-14T23:02:11.526Z,7.15
2023-04-14T23:04:39.075Z,7.13
2023-04-14T23:07:06.312Z,6.22
2023-04-14T23:09:33.575Z,7.05
2023-04-14T23:12:02.740Z,6.90
2023-04-14T23:14:29.994Z,8.57
2023-04-14T23:16:58.121Z,7.45
2023-04-14T23:19:25.386Z,7.22
2023-04-14T23:21:53.064Z,6.90
2023-04-14T23:24:20.748Z,7.15
2023-04-14T23:26:47.967Z,7.70
2023-04-14T23:29:15.492Z,6.78
2023-04-14T23:31:42.769Z,7.45
2023-04-14T23:34:10.904Z,7.80
2023-04-14T23:36:38.221Z,7.88
2023-04-14T23:39:05.694Z,7.63
2023-04-14T23:41:33.056Z,7.47
2023-04-14T23:44:00.592Z,8.07
2023-04-14T23:46:27.886Z,8.38
2023-04-14T23:48:55.159Z,8.15
2023-04-14T23:51:23.158Z,7.78
2023-04-14T23:53:50.776Z,7.70
2023-04-14T23:56:18.113Z,7.63
2023-04-14T23:58:45.362Z,9.15
